Portada
METAR-TAF:

METAR-TAF

Aeroports :

Lampang, Tailàndia

latitud: 18-17N, longitud: 099-31E, altitud: 241 m

Observació

L'informe es va fer fa 5 hores i 28 minuts, a les 12:00 UTC
Vent 3 kt del Est/Sud-Est
Temperatura 27°C
Humitat 84%
Pressió 1006 hPa
Visibilitat 10 km o més
Escasses núvols a una alçada de 2500 ft
Núvols disperses a una alçada de 10000 ft

METAR: VTCL 281200Z 12003KT 9999 FEW025 SCT100 27/24 Q1006 NOSIG

Hora: 00:28 (17:28 UTC)

Pronòstic

L'informe es va fer fa 6 hores i 28 minuts, a les 11:00 UTC
Pronòstic vàlid del 28 a les 12 UTC al 29 a les 12 UTC
Vent 5 kt del Sud/Sud-Est
Visibilitat 10 km o més
Núvols disperses a una alçada de 2500 ft
Temporalment
l' 29 a les 06 UTC al 29 a les 12 UTC
Vent 15 kt del Sud/Sud-Oest
Visibilitat: 4000 m
Escasses núvols a una alçada de 2000 ft, Cumulonimbus.
Cel ennuvolat a una alçada de 2500 ft
tempesta, pluja

TAF: VTCL 281100Z 2812/2912 16005KT 9999 SCT025 TEMPO 2906/2912 20015KT 4000 TSRA FEW020CB BKN025

Observacions i pronòstics meteorològics de més de 4000 aeroports (METAR i TAF).

Les estacions disponibles són els punts grocs i vermells al mapa.

Posi el ratolí al punt desitjat per veure el nom de l'estació.

Feu clic per veure les observacions i els pronòstics meteorològics.

Per canviar el mapa: feu clic els botons verds amb una creu de color negre per apropar; al botó verd amb un guió per allunyar la imatge; o en les fletxes verdes per a mapes adjacents.


METAR-TAF: